Time;durP1;ratioP1;P1;durP2;ratioP2;P2;SDS_P1;SDS_P2;PMS_P1;PMS_P2;Temp;Humidity;BMP_temperature;BMP_pressure;BME280_temperature;BME280_humidity;BME280_pressure;Samples;Min_cycle;Max_cycle;Signal;HPM_P1;HPM_P2
2022/03/14 00:01:06;;;;;;;8.85;4.88;;;8.50;99.90;;;;;;11922624;29;20105;-83
2022/03/14 00:07:10;;;;;;;12.27;6.68;;;8.80;98.20;;;;;;11919122;29;20054;-82
2022/03/14 00:13:16;;;;;;;11.85;7.85;;;8.60;99.90;;;;;;11922679;29;20464;-82
2022/03/14 00:19:20;;;;;;;9.50;6.47;;;8.30;99.90;;;;;;11918746;29;20166;-82
2022/03/14 00:25:22;;;;;;;11.43;6.37;;;8.20;99.90;;;;;;11921814;29;20519;-82
2022/03/14 00:31:24;;;;;;;10.68;6.30;;;7.90;99.90;;;;;;11921555;29;20103;-82
2022/03/14 00:37:26;;;;;;;10.18;6.57;;;7.90;99.90;;;;;;11923343;29;20089;-82
2022/03/14 00:43:28;;;;;;;10.88;5.82;;;7.80;99.90;;;;;;11916533;29;20066;-82
2022/03/14 00:49:30;;;;;;;9.23;5.53;;;7.80;99.90;;;;;;11915599;29;20092;-82
2022/03/14 00:55:32;;;;;;;11.15;5.22;;;8.50;99.90;;;;;;11931169;29;20109;-83
2022/03/14 01:01:34;;;;;;;9.95;6.60;;;8.50;99.90;;;;;;11918359;29;20054;-82
2022/03/14 01:07:36;;;;;;;9.13;6.75;;;8.50;99.90;;;;;;11917002;29;20088;-83
2022/03/14 01:13:38;;;;;;;14.00;7.28;;;8.40;99.90;;;;;;11919933;29;20134;-83
2022/03/14 01:19:40;;;;;;;9.05;6.18;;;8.00;99.90;;;;;;11918772;29;20114;-82
2022/03/14 01:25:43;;;;;;;9.70;6.55;;;8.00;99.90;;;;;;11920160;29;20063;-83
2022/03/14 01:31:44;;;;;;;9.68;5.65;;;8.00;99.90;;;;;;11918132;29;20478;-82
2022/03/14 01:37:50;;;;;;;10.07;6.30;;;8.00;99.90;;;;;;11914269;29;20594;-82
2022/03/14 01:43:53;;;;;;;14.18;6.25;;;8.10;99.90;;;;;;11917813;29;20058;-82
2022/03/14 01:49:55;;;;;;;9.18;5.85;;;8.10;99.90;;;;;;11929368;29;20075;-82
2022/03/14 01:55:56;;;;;;;13.00;6.75;;;8.10;99.90;;;;;;11914626;29;20062;-82
2022/03/14 02:01:59;;;;;;;10.75;6.47;;;7.90;99.90;;;;;;11920437;29;20054;-82
2022/03/14 02:08:01;;;;;;;12.23;6.70;;;7.90;99.90;;;;;;11919749;29;20050;-82
2022/03/14 02:14:06;;;;;;;14.32;6.57;;;8.10;99.90;;;;;;11916916;29;20051;-82
2022/03/14 02:20:08;;;;;;;12.30;7.10;;;8.00;99.90;;;;;;11915137;29;20484;-82
2022/03/14 02:26:10;;;;;;;12.55;7.10;;;7.90;99.90;;;;;;11917610;29;20111;-83
2022/03/14 02:32:12;;;;;;;11.30;7.43;;;7.80;99.90;;;;;;11915058;29;20146;-83
2022/03/14 02:38:16;;;;;;;12.00;7.18;;;7.60;99.90;;;;;;11926431;29;20114;-82
2022/03/14 02:44:18;;;;;;;13.07;7.70;;;7.70;99.90;;;;;;11914988;29;20155;-82
2022/03/14 02:50:19;;;;;;;10.73;6.75;;;7.70;99.90;;;;;;11919096;29;20510;-82
2022/03/14 02:56:21;;;;;;;14.18;7.63;;;7.60;99.90;;;;;;11920991;29;20118;-82
2022/03/14 03:02:25;;;;;;;11.35;7.88;;;7.60;99.90;;;;;;11916618;29;20066;-82
2022/03/14 03:08:27;;;;;;;11.83;7.97;;;7.60;99.90;;;;;;11932043;29;20058;-82
2022/03/14 03:14:30;;;;;;;10.55;7.35;;;7.60;99.90;;;;;;11914521;29;20062;-82
2022/03/14 03:20:32;;;;;;;11.60;7.60;;;7.50;99.90;;;;;;11913298;29;20046;-82
2022/03/14 03:26:38;;;;;;;15.15;8.15;;;7.40;99.90;;;;;;11916221;29;20503;-82
2022/03/14 03:32:40;;;;;;;13.20;7.18;;;7.10;99.90;;;;;;11915256;29;20081;-82
2022/03/14 03:38:42;;;;;;;10.60;6.85;;;7.00;99.90;;;;;;11915282;29;20066;-83
2022/03/14 03:44:44;;;;;;;10.88;7.50;;;7.10;99.90;;;;;;11910000;29;20058;-82
2022/03/14 03:50:46;;;;;;;13.27;8.25;;;7.20;99.90;;;;;;11911069;29;20062;-83
2022/03/14 03:56:48;;;;;;;11.27;8.18;;;7.30;99.90;;;;;;11914370;29;20061;-82
2022/03/14 04:02:50;;;;;;;12.43;8.75;;;7.30;99.90;;;;;;11915565;29;20082;-82
2022/03/14 04:08:52;;;;;;;14.15;8.40;;;7.30;99.90;;;;;;11913586;29;20512;-81
2022/03/14 04:15:04;;;;;;;12.13;7.50;;;7.20;99.90;;;;;;11913092;29;20675;-82
2022/03/14 04:21:06;;;;;;;12.57;7.95;;;7.00;99.90;;;;;;11917174;29;20123;-83
2022/03/14 04:27:08;;;;;;;15.15;8.73;;;7.00;99.90;;;;;;11913554;29;20080;-83
2022/03/14 04:33:10;;;;;;;16.63;8.85;;;7.00;99.90;;;;;;11912672;29;20054;-83
2022/03/14 04:39:12;;;;;;;11.77;8.55;;;6.90;99.90;;;;;;11924576;29;20062;-83
2022/03/14 04:45:14;;;;;;;16.23;9.75;;;6.90;99.90;;;;;;11912827;29;20581;-82
2022/03/14 04:51:16;;;;;;;14.45;9.18;;;6.80;99.90;;;;;;11912841;29;20081;-82
2022/03/14 04:57:19;;;;;;;15.15;9.80;;;6.80;99.90;;;;;;11931044;29;20062;-83
2022/03/14 05:03:21;;;;;;;14.32;9.50;;;6.50;99.90;;;;;;11944153;29;20481;-82
2022/03/14 05:09:23;;;;;;;16.77;9.75;;;6.70;99.90;;;;;;11919653;29;20449;-81
2022/03/14 05:15:25;;;;;;;19.02;10.18;;;6.40;99.90;;;;;;11924092;29;20123;-81
2022/03/14 05:21:26;;;;;;;15.23;10.48;;;6.30;99.90;;;;;;11923871;29;20749;-81
2022/03/14 05:27:28;;;;;;;18.88;10.98;;;6.10;99.90;;;;;;11946202;29;20280;-81
2022/03/14 05:33:30;;;;;;;22.27;11.82;;;5.80;99.90;;;;;;11940182;29;20650;-81
2022/03/14 05:39:32;;;;;;;21.10;13.10;;;5.70;99.90;;;;;;11952611;29;20210;-82
2022/03/14 05:45:34;;;;;;;24.58;14.68;;;5.70;99.90;;;;;;11924643;29;20441;-82
2022/03/14 05:51:37;;;;;;;23.58;14.85;;;5.80;99.90;;;;;;11927142;29;20051;-81
2022/03/14 05:57:40;;;;;;;24.73;15.80;;;5.90;99.90;;;;;;11919848;29;20054;-82
2022/03/14 06:03:42;;;;;;;29.70;16.35;;;6.10;99.90;;;;;;11912225;29;20058;-82
2022/03/14 06:09:44;;;;;;;26.65;17.50;;;6.20;99.90;;;;;;11924972;29;20089;-82
2022/03/14 06:15:47;;;;;;;31.60;18.77;;;6.20;99.90;;;;;;11933418;29;20136;-81
2022/03/14 06:21:50;;;;;;;28.00;18.23;;;6.30;99.90;;;;;;11914842;29;20054;-82
2022/03/14 06:27:52;;;;;;;33.05;19.50;;;6.30;99.90;;;;;;11918591;29;21480;-81
2022/03/14 06:33:54;;;;;;;31.23;19.83;;;6.30;99.90;;;;;;11917463;29;20092;-83
2022/03/14 06:39:56;;;;;;;33.30;20.98;;;6.30;99.90;;;;;;11917653;29;20066;-83
2022/03/14 06:45:58;;;;;;;32.47;19.10;;;6.40;99.90;;;;;;11915932;29;20091;-82
2022/03/14 06:52:00;;;;;;;33.70;17.27;;;6.50;99.90;;;;;;11915229;29;20085;-82
2022/03/14 06:58:02;;;;;;;31.25;19.75;;;6.70;99.90;;;;;;11936228;29;20111;-82
2022/03/14 07:04:04;;;;;;;38.90;22.20;;;6.80;99.90;;;;;;11910545;29;20054;-82
2022/03/14 07:10:07;;;;;;;40.33;23.67;;;6.80;99.90;;;;;;11918734;29;20055;-81
2022/03/14 07:16:09;;;;;;;34.80;20.95;;;6.80;99.90;;;;;;11915316;29;20138;-83
2022/03/14 07:22:19;;;;;;;31.40;19.75;;;6.80;99.90;;;;;;11918650;29;20085;-83
2022/03/14 07:28:26;;;;;;;31.03;19.10;;;6.70;99.90;;;;;;11918859;29;20098;-81
2022/03/14 07:34:31;;;;;;;27.40;16.30;;;6.70;99.90;;;;;;11918520;29;20055;-82
2022/03/14 07:40:32;;;;;;;24.98;14.98;;;6.60;99.90;;;;;;11917375;29;20050;-82
2022/03/14 07:46:34;;;;;;;30.00;15.82;;;6.70;99.90;;;;;;11916506;29;20062;-82
2022/03/14 07:52:37;;;;;;;29.70;17.02;;;6.70;99.90;;;;;;11921345;29;20055;-81
2022/03/14 08:14:15;;;;;;;29.50;16.52;;;6.70;99.90;;;;;;12580736;27;20915;-40
2022/03/14 08:20:17;;;;;;;22.20;14.77;;;6.90;99.90;;;;;;12525888;28;20128;-39
2022/03/14 08:26:21;;;;;;;24.08;15.15;;;6.90;99.90;;;;;;12528127;28;20102;-38
2022/03/14 08:32:24;;;;;;;20.27;13.73;;;6.90;99.90;;;;;;12533277;28;20407;-40
2022/03/14 08:38:26;;;;;;;22.45;14.32;;;6.90;99.90;;;;;;12527235;28;20868;-41
2022/03/14 08:44:28;;;;;;;22.60;14.63;;;7.10;99.90;;;;;;12525732;28;20060;-37
2022/03/14 08:50:31;;;;;;;18.70;11.43;;;7.10;99.90;;;;;;12526397;28;20695;-38
2022/03/14 08:56:34;;;;;;;14.35;8.13;;;7.10;99.90;;;;;;12526234;28;20049;-38
2022/03/14 09:02:36;;;;;;;13.93;7.60;;;7.10;99.90;;;;;;12524337;28;20144;-38
2022/03/14 09:08:39;;;;;;;9.05;5.47;;;7.30;99.90;;;;;;12520888;28;20148;-38
2022/03/14 09:14:41;;;;;;;5.47;3.72;;;7.30;99.90;;;;;;12490438;28;20118;-40
2022/03/14 09:20:44;;;;;;;5.55;3.80;;;7.40;99.90;;;;;;12490613;28;20073;-38
2022/03/14 09:26:46;;;;;;;7.05;3.70;;;7.50;99.90;;;;;;12488832;28;20834;-38
2022/03/14 09:32:48;;;;;;;7.13;4.80;;;7.50;99.90;;;;;;12487499;28;20580;-38
2022/03/14 09:38:51;;;;;;;7.22;4.72;;;7.60;99.90;;;;;;12492084;28;20060;-38
2022/03/14 09:44:57;;;;;;;8.35;5.28;;;7.70;99.90;;;;;;12486156;28;20122;-38
2022/03/14 09:51:00;;;;;;;8.75;5.68;;;7.60;99.90;;;;;;12487481;28;20041;-40
2022/03/14 09:57:02;;;;;;;9.75;5.80;;;7.60;99.90;;;;;;12487701;28;20115;-38
2022/03/14 10:03:05;;;;;;;9.50;6.28;;;7.50;99.90;;;;;;12482517;28;20057;-38
2022/03/14 10:09:08;;;;;;;10.60;6.53;;;7.70;99.90;;;;;;12491150;28;20511;-40
2022/03/14 10:15:11;;;;;;;11.60;7.53;;;7.80;99.90;;;;;;12484568;28;20481;-38
2022/03/14 10:21:13;;;;;;;12.15;8.32;;;7.80;99.90;;;;;;12487237;28;20197;-38
2022/03/14 10:27:21;;;;;;;12.38;7.80;;;7.80;99.90;;;;;;12491023;28;20139;-42
2022/03/14 10:33:24;;;;;;;12.23;7.78;;;7.80;99.90;;;;;;12485775;28;20455;-37
2022/03/14 10:39:27;;;;;;;10.70;7.55;;;7.80;99.90;;;;;;12489803;28;20538;-38
2022/03/14 10:45:32;;;;;;;12.82;8.57;;;7.80;99.90;;;;;;12485235;28;20049;-40
2022/03/14 10:51:57;;;;;;;13.68;8.80;;;7.80;99.90;;;;;;12485961;28;20546;-38
2022/03/14 10:58:07;;;;;;;13.70;8.05;;;7.90;99.90;;;;;;12488621;28;20041;-38
2022/03/14 11:04:11;;;;;;;13.68;9.15;;;8.10;99.90;;;;;;12486478;28;20088;-40
2022/03/14 11:10:13;;;;;;;13.48;9.63;;;8.20;99.90;;;;;;12487312;28;20053;-41
2022/03/14 11:16:22;;;;;;;14.30;10.75;;;8.30;99.90;;;;;;12489867;28;20560;-40
2022/03/14 11:22:26;;;;;;;14.88;10.82;;;8.30;99.90;;;;;;12487046;28;20049;-38
2022/03/14 11:28:32;;;;;;;;;;;8.40;99.90;;;;;;12485254;28;20041;-40
2022/03/14 11:34:35;;;;;;;15.95;10.80;;;8.40;99.90;;;;;;12486152;28;19933;-42
2022/03/14 11:40:37;;;;;;;15.98;11.93;;;8.50;99.90;;;;;;12490457;28;20057;-40
2022/03/14 11:46:40;;;;;;;16.25;12.07;;;8.70;99.90;;;;;;12486710;28;20049;-40
2022/03/14 11:52:43;;;;;;;21.23;14.23;;;8.60;99.90;;;;;;12494275;28;20046;-38
2022/03/14 11:58:49;;;;;;;23.93;12.53;;;8.40;99.90;;;;;;12490830;28;20484;-38
2022/03/14 12:05:00;;;;;;;18.27;12.57;;;8.50;99.90;;;;;;12492399;28;20495;-37
2022/03/14 12:11:37;;;;;;;19.15;13.85;;;8.60;99.90;;;;;;12492367;28;20041;-37
2022/03/14 12:17:43;;;;;;;28.02;13.82;;;8.80;99.90;;;;;;12480457;28;20064;-40
2022/03/14 12:23:52;;;;;;;18.88;13.05;;;9.00;99.90;;;;;;12489973;28;20540;-38
2022/03/14 12:29:56;;;;;;;18.38;12.63;;;8.90;99.90;;;;;;12489941;28;20132;-40
2022/03/14 12:36:22;;;;;;;18.08;12.50;;;8.80;99.90;;;;;;12488105;28;20211;-39
2022/03/14 12:42:25;;;;;;;20.90;11.18;;;8.70;99.90;;;;;;12494087;28;20085;-38
2022/03/14 12:48:31;;;;;;;19.23;10.15;;;8.80;99.90;;;;;;12500804;28;20049;-40
2022/03/14 12:54:35;;;;;;;17.23;10.43;;;8.90;99.90;;;;;;12501180;28;20105;-41
2022/03/14 13:00:37;;;;;;;20.95;10.80;;;9.00;99.90;;;;;;12497005;28;20045;-38
2022/03/14 13:07:00;;;;;;;15.20;9.98;;;9.10;99.90;;;;;;12499944;28;20060;-41
2022/03/14 13:13:29;;;;;;;15.00;9.75;;;9.00;99.90;;;;;;12496452;28;20084;-40
2022/03/14 13:19:32;;;;;;;17.50;10.73;;;9.00;99.90;;;;;;12499241;28;20148;-40
2022/03/14 13:25:36;;;;;;;15.73;9.90;;;8.90;99.90;;;;;;12496792;28;20072;-38
2022/03/14 13:31:44;;;;;;;15.27;10.10;;;8.80;99.90;;;;;;12497104;28;20501;-39
2022/03/14 13:37:47;;;;;;;15.98;11.00;;;8.70;99.90;;;;;;12499416;28;20048;-38
2022/03/14 13:43:51;;;;;;;18.02;10.82;;;8.70;99.90;;;;;;12496640;28;20056;-40
2022/03/14 13:50:01;;;;;;;18.73;11.25;;;8.70;99.90;;;;;;12495610;28;20458;-38
2022/03/14 13:56:03;;;;;;;19.92;12.60;;;8.60;99.90;;;;;;12494279;28;20115;-41
2022/03/14 14:02:10;;;;;;;20.30;12.85;;;8.60;99.90;;;;;;12493214;28;20163;-37
2022/03/14 14:08:31;;;;;;;21.13;12.57;;;8.60;99.90;;;;;;12496305;28;20056;-40
2022/03/14 14:14:37;;;;;;;24.45;13.77;;;8.50;99.90;;;;;;12502322;28;20416;-39
2022/03/14 14:20:39;;;;;;;22.05;13.18;;;8.50;99.90;;;;;;12501298;28;20140;-37
2022/03/14 14:26:41;;;;;;;21.45;14.40;;;8.50;99.90;;;;;;12488876;28;20049;-38
2022/03/14 14:32:43;;;;;;;20.58;12.23;;;8.50;99.90;;;;;;12491476;28;20053;-38
2022/03/14 14:38:46;;;;;;;24.65;14.30;;;8.60;99.90;;;;;;12490697;28;20608;-40
2022/03/14 14:44:48;;;;;;;24.42;15.20;;;8.60;99.90;;;;;;12493570;28;20152;-39
2022/03/14 14:50:50;;;;;;;29.35;15.85;;;8.70;99.90;;;;;;12490146;28;20098;-38
2022/03/14 14:56:59;;;;;;;22.40;14.73;;;8.70;99.90;;;;;;12491251;28;20101;-37
2022/03/14 15:03:01;;;;;;;24.80;15.65;;;8.80;99.90;;;;;;12485737;28;20084;-38
2022/03/14 15:09:03;;;;;;;24.50;15.05;;;8.90;99.90;;;;;;12491705;28;20237;-41
2022/03/14 15:15:07;;;;;;;24.98;14.30;;;9.00;99.90;;;;;;12492399;28;20088;-39
2022/03/14 15:21:10;;;;;;;21.40;13.65;;;9.10;99.90;;;;;;12489491;28;20491;-38
2022/03/14 15:27:12;;;;;;;20.25;12.48;;;9.40;99.90;;;;;;12489914;28;20057;-38
2022/03/14 15:33:14;;;;;;;19.90;12.48;;;9.60;99.90;;;;;;12492604;28;20053;-38
2022/03/14 15:39:16;;;;;;;19.23;12.15;;;9.70;99.90;;;;;;12489039;28;20140;-37
2022/03/14 15:45:18;;;;;;;17.83;12.20;;;9.80;99.90;;;;;;12487842;28;20056;-38
2022/03/14 15:51:21;;;;;;;20.52;11.77;;;9.80;99.90;;;;;;12489350;28;20061;-38
2022/03/14 15:57:23;;;;;;;18.95;11.85;;;9.80;99.90;;;;;;12489402;28;20091;-38
2022/03/14 16:03:25;;;;;;;19.65;12.90;;;9.80;99.90;;;;;;12487957;28;20648;-38
2022/03/14 16:09:28;;;;;;;24.55;13.80;;;9.60;99.90;;;;;;12489423;28;20056;-41
2022/03/14 16:15:31;;;;;;;27.45;12.73;;;9.50;99.90;;;;;;12487736;28;20465;-40
2022/03/14 16:21:35;;;;;;;22.25;13.27;;;9.50;99.90;;;;;;12500675;28;20139;-38
2022/03/14 16:27:38;;;;;;;23.48;12.48;;;9.60;99.90;;;;;;12499009;28;20049;-38
2022/03/14 16:33:41;;;;;;;19.63;12.38;;;9.60;99.90;;;;;;12495128;28;20835;-40
2022/03/14 16:39:44;;;;;;;21.13;11.00;;;9.70;99.90;;;;;;12494180;28;20052;-41
2022/03/14 16:45:47;;;;;;;19.45;10.93;;;9.80;99.90;;;;;;12485859;28;20049;-40
2022/03/14 16:51:49;;;;;;;20.92;9.95;;;10.10;99.90;;;;;;12492085;28;20132;-41
2022/03/14 16:57:52;;;;;;;17.05;9.05;;;10.10;99.90;;;;;;12494517;28;20064;-39
2022/03/14 17:03:55;;;;;;;20.00;9.53;;;10.20;99.90;;;;;;12489218;28;20068;-38
2022/03/14 17:09:58;;;;;;;13.75;7.90;;;10.20;99.90;;;;;;12493877;28;20061;-40
2022/03/14 17:16:00;;;;;;;17.17;9.63;;;9.90;99.90;;;;;;12496971;28;20114;-39
2022/03/14 17:22:03;;;;;;;17.52;9.38;;;9.70;99.90;;;;;;12493055;28;20774;-39
2022/03/14 17:28:05;;;;;;;20.42;9.70;;;9.40;99.90;;;;;;12495646;28;20052;-41
2022/03/14 17:34:07;;;;;;;17.52;9.48;;;9.00;99.90;;;;;;12494511;28;20080;-38
2022/03/14 17:40:12;;;;;;;18.55;10.73;;;8.70;99.90;;;;;;12495929;28;20050;-38
2022/03/14 17:46:14;;;;;;;16.05;10.27;;;8.60;99.90;;;;;;12493085;28;20053;-41
2022/03/14 17:52:17;;;;;;;16.88;10.00;;;8.50;99.90;;;;;;12493462;28;20497;-40
2022/03/14 17:58:19;;;;;;;16.40;10.65;;;8.40;99.90;;;;;;12489303;28;20053;-39
2022/03/14 18:04:21;;;;;;;19.92;10.50;;;8.30;99.90;;;;;;12488107;28;20053;-40
2022/03/14 18:10:27;;;;;;;17.80;9.30;;;8.30;99.90;;;;;;12488164;28;21007;-37
2022/03/14 18:16:29;;;;;;;14.88;9.18;;;8.30;99.90;;;;;;12490949;28;20451;-40
2022/03/14 18:22:32;;;;;;;16.95;8.88;;;8.30;99.90;;;;;;12490370;28;20052;-40
2022/03/14 18:28:33;;;;;;;15.48;8.95;;;8.30;99.90;;;;;;12489603;28;20137;-40
2022/03/14 18:34:48;;;;;;;19.17;9.75;;;8.30;99.90;;;;;;12485337;28;20131;-38
2022/03/14 18:40:50;;;;;;;;;;;8.30;99.90;;;;;;12489256;28;20075;-40
2022/03/14 18:46:53;;;;;;;17.13;9.15;;;8.30;99.90;;;;;;12492095;28;19956;-41
2022/03/14 18:52:54;;;;;;;17.08;8.98;;;8.30;99.90;;;;;;12492417;28;20059;-38
2022/03/14 18:58:56;;;;;;;15.63;9.00;;;8.30;99.90;;;;;;12488329;28;20084;-39
2022/03/14 19:05:00;;;;;;;21.27;11.27;;;8.20;99.90;;;;;;12491012;28;20040;-39
2022/03/14 19:11:02;;;;;;;17.17;9.63;;;8.20;99.90;;;;;;12491529;28;20160;-38
2022/03/14 19:17:05;;;;;;;18.02;9.00;;;8.20;99.90;;;;;;12487855;28;20565;-37
2022/03/14 19:23:07;;;;;;;18.85;9.73;;;8.10;99.90;;;;;;12488100;28;20057;-39
2022/03/14 19:29:11;;;;;;;20.30;10.15;;;7.90;99.90;;;;;;12489975;28;20053;-40
2022/03/14 19:35:15;;;;;;;21.47;11.07;;;7.90;99.90;;;;;;12489710;28;20219;-39
2022/03/14 19:41:18;;;;;;;19.83;9.57;;;7.80;99.90;;;;;;12489530;28;20131;-38
2022/03/14 19:47:19;;;;;;;16.88;9.55;;;7.70;99.90;;;;;;12494816;28;20094;-39
2022/03/14 19:53:23;;;;;;;16.85;8.52;;;7.70;99.90;;;;;;12485915;28;20084;-37
2022/03/14 19:59:26;;;;;;;17.15;9.25;;;7.70;99.90;;;;;;12495684;28;20053;-38
2022/03/14 20:05:29;;;;;;;20.42;11.25;;;7.60;99.90;;;;;;12491254;28;20052;-38
2022/03/14 20:11:34;;;;;;;22.40;10.82;;;7.70;99.90;;;;;;12487889;28;20414;-37
2022/03/14 20:17:36;;;;;;;19.13;11.07;;;7.50;99.90;;;;;;12490551;28;20114;-40
2022/03/14 20:23:38;;;;;;;15.77;10.15;;;7.50;99.90;;;;;;12488585;28;20049;-39
2022/03/14 20:29:40;;;;;;;16.92;10.63;;;7.40;99.90;;;;;;12489372;28;20060;-39
2022/03/14 20:35:42;;;;;;;21.38;11.38;;;7.40;99.90;;;;;;12487956;28;20050;-37
2022/03/14 20:41:46;;;;;;;21.83;12.00;;;7.40;99.90;;;;;;12487673;28;20582;-38
2022/03/14 20:47:48;;;;;;;19.05;12.07;;;7.40;99.90;;;;;;12482027;28;20049;-40
2022/03/14 20:53:50;;;;;;;17.17;10.68;;;7.40;99.90;;;;;;12488617;28;20429;-37
2022/03/14 20:59:53;;;;;;;17.45;11.18;;;7.50;99.90;;;;;;12487517;28;20061;-38
2022/03/14 21:05:55;;;;;;;19.90;11.82;;;7.40;99.90;;;;;;12484226;28;20053;-40
2022/03/14 21:12:01;;;;;;;20.88;11.93;;;7.40;99.90;;;;;;12480343;28;20048;-40
2022/03/14 21:18:03;;;;;;;19.88;11.90;;;7.30;99.90;;;;;;12481501;28;20418;-39
2022/03/14 21:24:05;;;;;;;21.70;11.30;;;7.30;99.90;;;;;;12479105;28;20057;-39
2022/03/14 21:30:11;;;;;;;20.65;12.15;;;7.10;99.90;;;;;;12478718;28;20079;-40
2022/03/14 21:36:16;;;;;;;17.13;12.38;;;6.90;99.90;;;;;;12482507;28;20114;-37
2022/03/14 21:42:18;;;;;;;25.25;12.77;;;6.80;99.90;;;;;;12478799;28;20143;-39
2022/03/14 21:48:22;;;;;;;20.80;12.45;;;6.80;99.90;;;;;;12483611;28;20057;-37
2022/03/14 21:54:25;;;;;;;21.60;12.68;;;6.80;99.90;;;;;;12479002;28;20053;-37
2022/03/14 22:00:28;;;;;;;24.80;13.53;;;6.90;99.90;;;;;;12480642;28;20873;-37
2022/03/14 22:06:30;;;;;;;27.38;13.55;;;6.90;99.90;;;;;;12480864;28;20064;-39
2022/03/14 22:12:32;;;;;;;24.95;13.32;;;6.90;99.90;;;;;;12477559;28;20164;-37
2022/03/14 22:18:35;;;;;;;25.88;14.80;;;6.80;99.90;;;;;;12478834;28;20416;-38
2022/03/14 22:24:37;;;;;;;26.20;16.13;;;6.70;99.90;;;;;;12477853;28;20160;-40
2022/03/14 22:30:39;;;;;;;25.60;15.95;;;6.70;99.90;;;;;;12477018;28;20053;-37
2022/03/14 22:36:41;;;;;;;27.55;16.17;;;6.80;99.90;;;;;;12480086;28;20611;-36
2022/03/14 22:42:43;;;;;;;27.58;17.05;;;6.90;99.90;;;;;;12474082;28;20053;-40
2022/03/14 22:48:45;;;;;;;28.92;16.50;;;6.90;99.90;;;;;;12479080;28;20145;-39
2022/03/14 22:54:47;;;;;;;25.90;16.50;;;6.90;99.90;;;;;;12475250;28;20559;-38
2022/03/14 23:00:49;;;;;;;25.98;16.55;;;6.80;99.90;;;;;;12471700;28;20064;-37
2022/03/14 23:06:52;;;;;;;26.42;16.50;;;6.80;99.90;;;;;;12475575;28;20069;-37
2022/03/14 23:12:57;;;;;;;33.80;17.30;;;6.70;99.90;;;;;;12472159;28;20626;-37
2022/03/14 23:18:59;;;;;;;28.02;17.63;;;6.70;99.90;;;;;;12478326;28;20080;-37
2022/03/14 23:25:02;;;;;;;28.08;16.45;;;6.60;99.90;;;;;;12473616;28;20092;-40
2022/03/14 23:31:05;;;;;;;24.33;15.57;;;6.40;99.90;;;;;;12470960;28;20053;-39
2022/03/14 23:37:07;;;;;;;30.42;16.30;;;6.20;99.90;;;;;;12478302;28;20080;-37
2022/03/14 23:43:14;;;;;;;28.48;16.88;;;6.10;99.90;;;;;;12475024;28;20582;-37
2022/03/14 23:49:16;;;;;;;31.73;17.08;;;6.00;99.90;;;;;;12471626;28;20049;-39
2022/03/14 23:55:18;;;;;;;31.48;18.75;;;5.80;99.90;;;;;;12475621;28;20194;-39
